sensor_id;sensor_type;location;lat;lon;timestamp;P1;durP1;ratioP1;P2;durP2;ratioP2
8803;SDS011;4438;50.890;4.726;2023-07-31T00:00:28;12.57;;;5.63;;
8803;SDS011;4438;50.890;4.726;2023-07-31T00:02:54;9.87;;;5.10;;
8803;SDS011;4438;50.890;4.726;2023-07-31T00:05:20;10.97;;;5.77;;
8803;SDS011;4438;50.890;4.726;2023-07-31T00:07:46;10.63;;;5.70;;
8803;SDS011;4438;50.890;4.726;2023-07-31T00:10:13;9.07;;;5.03;;
8803;SDS011;4438;50.890;4.726;2023-07-31T00:12:40;10.17;;;5.20;;
8803;SDS011;4438;50.890;4.726;2023-07-31T00:15:07;9.10;;;5.53;;
8803;SDS011;4438;50.890;4.726;2023-07-31T00:17:33;10.13;;;5.20;;
8803;SDS011;4438;50.890;4.726;2023-07-31T00:19:59;11.03;;;5.43;;
8803;SDS011;4438;50.890;4.726;2023-07-31T00:22:25;9.73;;;5.27;;
8803;SDS011;4438;50.890;4.726;2023-07-31T00:24:53;9.50;;;5.40;;
8803;SDS011;4438;50.890;4.726;2023-07-31T00:27:19;11.37;;;5.50;;
8803;SDS011;4438;50.890;4.726;2023-07-31T00:29:45;12.77;;;5.87;;
8803;SDS011;4438;50.890;4.726;2023-07-31T00:32:11;12.20;;;5.97;;
8803;SDS011;4438;50.890;4.726;2023-07-31T00:34:37;9.23;;;5.27;;
8803;SDS011;4438;50.890;4.726;2023-07-31T00:37:03;9.17;;;5.37;;
8803;SDS011;4438;50.890;4.726;2023-07-31T00:39:29;10.23;;;5.73;;
8803;SDS011;4438;50.890;4.726;2023-07-31T00:41:56;12.17;;;6.13;;
8803;SDS011;4438;50.890;4.726;2023-07-31T00:44:22;12.47;;;5.83;;
8803;SDS011;4438;50.890;4.726;2023-07-31T00:46:48;13.27;;;6.13;;
8803;SDS011;4438;50.890;4.726;2023-07-31T00:49:15;12.03;;;5.67;;
8803;SDS011;4438;50.890;4.726;2023-07-31T00:51:41;10.20;;;5.40;;
8803;SDS011;4438;50.890;4.726;2023-07-31T00:54:08;12.63;;;6.57;;
8803;SDS011;4438;50.890;4.726;2023-07-31T00:56:34;9.00;;;5.37;;
8803;SDS011;4438;50.890;4.726;2023-07-31T00:59:00;10.43;;;5.50;;
8803;SDS011;4438;50.890;4.726;2023-07-31T01:01:27;9.40;;;5.57;;
8803;SDS011;4438;50.890;4.726;2023-07-31T01:03:53;10.70;;;5.70;;
8803;SDS011;4438;50.890;4.726;2023-07-31T01:11:16;10.97;;;5.47;;
8803;SDS011;4438;50.890;4.726;2023-07-31T01:13:44;8.17;;;5.40;;
8803;SDS011;4438;50.890;4.726;2023-07-31T01:16:10;8.30;;;5.37;;
8803;SDS011;4438;50.890;4.726;2023-07-31T01:18:36;8.77;;;5.57;;
8803;SDS011;4438;50.890;4.726;2023-07-31T01:21:03;10.13;;;5.60;;
8803;SDS011;4438;50.890;4.726;2023-07-31T01:26:16;9.07;;;5.17;;
8803;SDS011;4438;50.890;4.726;2023-07-31T01:28:55;9.17;;;5.27;;
8803;SDS011;4438;50.890;4.726;2023-07-31T01:31:25;7.37;;;5.40;;
8803;SDS011;4438;50.890;4.726;2023-07-31T01:33:53;10.70;;;5.80;;
8803;SDS011;4438;50.890;4.726;2023-07-31T01:36:20;8.83;;;5.60;;
8803;SDS011;4438;50.890;4.726;2023-07-31T01:38:46;9.70;;;5.43;;
8803;SDS011;4438;50.890;4.726;2023-07-31T01:41:12;9.90;;;5.30;;
8803;SDS011;4438;50.890;4.726;2023-07-31T01:43:39;9.07;;;5.33;;
8803;SDS011;4438;50.890;4.726;2023-07-31T01:46:05;8.93;;;5.40;;
8803;SDS011;4438;50.890;4.726;2023-07-31T01:48:31;9.27;;;6.30;;
8803;SDS011;4438;50.890;4.726;2023-07-31T01:51:00;8.53;;;5.40;;
8803;SDS011;4438;50.890;4.726;2023-07-31T01:53:27;8.77;;;5.87;;
8803;SDS011;4438;50.890;4.726;2023-07-31T01:55:53;10.43;;;5.40;;
8803;SDS011;4438;50.890;4.726;2023-07-31T01:58:19;11.97;;;5.70;;
8803;SDS011;4438;50.890;4.726;2023-07-31T02:00:45;8.43;;;5.50;;
8803;SDS011;4438;50.890;4.726;2023-07-31T02:03:11;9.53;;;5.77;;
8803;SDS011;4438;50.890;4.726;2023-07-31T02:05:43;9.40;;;5.53;;
8803;SDS011;4438;50.890;4.726;2023-07-31T02:08:09;10.00;;;6.10;;
8803;SDS011;4438;50.890;4.726;2023-07-31T02:10:35;8.43;;;5.93;;
8803;SDS011;4438;50.890;4.726;2023-07-31T02:13:02;10.17;;;5.60;;
8803;SDS011;4438;50.890;4.726;2023-07-31T02:15:29;8.83;;;5.87;;
8803;SDS011;4438;50.890;4.726;2023-07-31T02:17:55;8.67;;;5.50;;
8803;SDS011;4438;50.890;4.726;2023-07-31T02:20:21;8.53;;;5.80;;
8803;SDS011;4438;50.890;4.726;2023-07-31T02:22:47;9.53;;;6.17;;
8803;SDS011;4438;50.890;4.726;2023-07-31T02:25:13;8.63;;;5.93;;
8803;SDS011;4438;50.890;4.726;2023-07-31T02:27:40;12.63;;;6.13;;
8803;SDS011;4438;50.890;4.726;2023-07-31T02:30:06;9.23;;;5.57;;
8803;SDS011;4438;50.890;4.726;2023-07-31T02:32:32;8.40;;;6.10;;
8803;SDS011;4438;50.890;4.726;2023-07-31T02:34:58;12.03;;;6.13;;
8803;SDS011;4438;50.890;4.726;2023-07-31T02:37:25;11.20;;;6.67;;
8803;SDS011;4438;50.890;4.726;2023-07-31T02:39:51;10.40;;;5.70;;
8803;SDS011;4438;50.890;4.726;2023-07-31T02:42:17;8.77;;;6.23;;
8803;SDS011;4438;50.890;4.726;2023-07-31T02:44:43;9.37;;;5.83;;
8803;SDS011;4438;50.890;4.726;2023-07-31T02:47:09;8.07;;;6.00;;
8803;SDS011;4438;50.890;4.726;2023-07-31T02:49:35;7.47;;;5.40;;
8803;SDS011;4438;50.890;4.726;2023-07-31T02:52:01;9.77;;;6.13;;
8803;SDS011;4438;50.890;4.726;2023-07-31T02:54:27;6.50;;;5.07;;
8803;SDS011;4438;50.890;4.726;2023-07-31T02:56:53;7.63;;;5.50;;
8803;SDS011;4438;50.890;4.726;2023-07-31T02:59:20;7.20;;;5.77;;
8803;SDS011;4438;50.890;4.726;2023-07-31T03:01:46;8.67;;;6.20;;
8803;SDS011;4438;50.890;4.726;2023-07-31T03:04:12;8.63;;;5.63;;
8803;SDS011;4438;50.890;4.726;2023-07-31T03:06:38;7.97;;;5.43;;
8803;SDS011;4438;50.890;4.726;2023-07-31T03:09:04;6.23;;;5.43;;
8803;SDS011;4438;50.890;4.726;2023-07-31T03:11:30;6.77;;;5.37;;
8803;SDS011;4438;50.890;4.726;2023-07-31T03:13:56;8.60;;;5.50;;
8803;SDS011;4438;50.890;4.726;2023-07-31T03:16:22;9.33;;;5.57;;
8803;SDS011;4438;50.890;4.726;2023-07-31T03:18:48;6.87;;;5.40;;
8803;SDS011;4438;50.890;4.726;2023-07-31T03:21:14;8.97;;;5.57;;
8803;SDS011;4438;50.890;4.726;2023-07-31T03:23:40;9.47;;;6.00;;
8803;SDS011;4438;50.890;4.726;2023-07-31T03:26:08;10.00;;;5.37;;
8803;SDS011;4438;50.890;4.726;2023-07-31T03:28:34;8.27;;;5.30;;
8803;SDS011;4438;50.890;4.726;2023-07-31T03:31:00;7.67;;;5.50;;
8803;SDS011;4438;50.890;4.726;2023-07-31T03:33:26;9.77;;;5.73;;
8803;SDS011;4438;50.890;4.726;2023-07-31T03:35:53;8.23;;;4.97;;
8803;SDS011;4438;50.890;4.726;2023-07-31T03:38:19;7.50;;;5.10;;
8803;SDS011;4438;50.890;4.726;2023-07-31T03:40:45;8.20;;;5.07;;
8803;SDS011;4438;50.890;4.726;2023-07-31T03:43:11;6.70;;;5.50;;
8803;SDS011;4438;50.890;4.726;2023-07-31T03:45:37;7.87;;;5.10;;
8803;SDS011;4438;50.890;4.726;2023-07-31T03:48:03;7.70;;;5.17;;
8803;SDS011;4438;50.890;4.726;2023-07-31T03:50:30;7.80;;;5.23;;
8803;SDS011;4438;50.890;4.726;2023-07-31T03:52:56;6.70;;;5.27;;
8803;SDS011;4438;50.890;4.726;2023-07-31T03:55:22;7.13;;;4.90;;
8803;SDS011;4438;50.890;4.726;2023-07-31T03:57:48;7.67;;;5.10;;
8803;SDS011;4438;50.890;4.726;2023-07-31T04:00:14;9.53;;;5.70;;
8803;SDS011;4438;50.890;4.726;2023-07-31T04:02:40;7.83;;;5.13;;
8803;SDS011;4438;50.890;4.726;2023-07-31T04:05:07;6.87;;;5.20;;
8803;SDS011;4438;50.890;4.726;2023-07-31T04:07:33;6.83;;;5.50;;
8803;SDS011;4438;50.890;4.726;2023-07-31T04:09:59;6.83;;;4.97;;
8803;SDS011;4438;50.890;4.726;2023-07-31T04:12:25;5.50;;;4.93;;
8803;SDS011;4438;50.890;4.726;2023-07-31T04:14:51;7.20;;;4.73;;
8803;SDS011;4438;50.890;4.726;2023-07-31T04:17:18;8.07;;;5.13;;
8803;SDS011;4438;50.890;4.726;2023-07-31T04:19:44;6.37;;;5.33;;
8803;SDS011;4438;50.890;4.726;2023-07-31T04:22:10;6.03;;;5.03;;
8803;SDS011;4438;50.890;4.726;2023-07-31T04:24:36;8.00;;;5.37;;
8803;SDS011;4438;50.890;4.726;2023-07-31T04:27:02;7.60;;;5.03;;
8803;SDS011;4438;50.890;4.726;2023-07-31T04:29:28;7.03;;;5.40;;
8803;SDS011;4438;50.890;4.726;2023-07-31T04:31:54;6.83;;;5.47;;
8803;SDS011;4438;50.890;4.726;2023-07-31T04:34:20;7.87;;;5.23;;
8803;SDS011;4438;50.890;4.726;2023-07-31T04:36:46;6.03;;;5.43;;
8803;SDS011;4438;50.890;4.726;2023-07-31T04:39:12;7.80;;;5.40;;
8803;SDS011;4438;50.890;4.726;2023-07-31T04:41:38;7.00;;;4.90;;
8803;SDS011;4438;50.890;4.726;2023-07-31T04:44:04;6.57;;;5.00;;
8803;SDS011;4438;50.890;4.726;2023-07-31T04:46:30;7.67;;;5.40;;
8803;SDS011;4438;50.890;4.726;2023-07-31T04:48:56;6.13;;;4.80;;
8803;SDS011;4438;50.890;4.726;2023-07-31T04:51:22;7.43;;;5.90;;
8803;SDS011;4438;50.890;4.726;2023-07-31T04:53:48;6.77;;;5.07;;
8803;SDS011;4438;50.890;4.726;2023-07-31T04:56:15;5.43;;;4.30;;
8803;SDS011;4438;50.890;4.726;2023-07-31T04:58:41;6.57;;;5.40;;
8803;SDS011;4438;50.890;4.726;2023-07-31T05:01:07;5.87;;;5.10;;
8803;SDS011;4438;50.890;4.726;2023-07-31T05:03:33;7.40;;;5.27;;
8803;SDS011;4438;50.890;4.726;2023-07-31T05:05:59;9.47;;;5.10;;
8803;SDS011;4438;50.890;4.726;2023-07-31T05:08:26;5.30;;;4.47;;
8803;SDS011;4438;50.890;4.726;2023-07-31T05:10:52;6.33;;;4.93;;
8803;SDS011;4438;50.890;4.726;2023-07-31T05:13:18;6.37;;;4.50;;
8803;SDS011;4438;50.890;4.726;2023-07-31T05:15:44;6.83;;;4.43;;
8803;SDS011;4438;50.890;4.726;2023-07-31T05:18:10;6.93;;;5.33;;
8803;SDS011;4438;50.890;4.726;2023-07-31T05:20:37;8.87;;;5.17;;
8803;SDS011;4438;50.890;4.726;2023-07-31T05:23:03;5.33;;;4.67;;
8803;SDS011;4438;50.890;4.726;2023-07-31T05:25:29;6.00;;;5.00;;
8803;SDS011;4438;50.890;4.726;2023-07-31T05:27:55;8.37;;;5.23;;
8803;SDS011;4438;50.890;4.726;2023-07-31T05:30:21;6.03;;;5.20;;
8803;SDS011;4438;50.890;4.726;2023-07-31T05:32:47;6.40;;;5.10;;
8803;SDS011;4438;50.890;4.726;2023-07-31T05:35:13;7.87;;;5.30;;
8803;SDS011;4438;50.890;4.726;2023-07-31T05:37:39;6.53;;;5.03;;
8803;SDS011;4438;50.890;4.726;2023-07-31T05:40:05;6.60;;;5.13;;
8803;SDS011;4438;50.890;4.726;2023-07-31T05:42:31;7.83;;;5.63;;
8803;SDS011;4438;50.890;4.726;2023-07-31T05:44:57;5.83;;;5.20;;
8803;SDS011;4438;50.890;4.726;2023-07-31T05:47:23;6.20;;;4.73;;
8803;SDS011;4438;50.890;4.726;2023-07-31T05:49:50;8.83;;;5.10;;
8803;SDS011;4438;50.890;4.726;2023-07-31T05:52:19;6.37;;;5.13;;
8803;SDS011;4438;50.890;4.726;2023-07-31T05:54:45;5.77;;;5.03;;
8803;SDS011;4438;50.890;4.726;2023-07-31T05:57:11;7.23;;;5.00;;
8803;SDS011;4438;50.890;4.726;2023-07-31T05:59:37;6.63;;;5.27;;
8803;SDS011;4438;50.890;4.726;2023-07-31T06:02:03;8.63;;;4.67;;
8803;SDS011;4438;50.890;4.726;2023-07-31T06:04:29;6.73;;;5.00;;
8803;SDS011;4438;50.890;4.726;2023-07-31T06:06:56;7.23;;;4.80;;
8803;SDS011;4438;50.890;4.726;2023-07-31T06:09:22;7.00;;;4.87;;
8803;SDS011;4438;50.890;4.726;2023-07-31T06:11:48;6.37;;;4.73;;
8803;SDS011;4438;50.890;4.726;2023-07-31T06:14:14;6.20;;;4.77;;
8803;SDS011;4438;50.890;4.726;2023-07-31T06:16:40;6.17;;;5.00;;
8803;SDS011;4438;50.890;4.726;2023-07-31T06:19:06;6.93;;;4.70;;
8803;SDS011;4438;50.890;4.726;2023-07-31T06:21:33;6.63;;;4.90;;
8803;SDS011;4438;50.890;4.726;2023-07-31T06:24:02;5.53;;;4.93;;
8803;SDS011;4438;50.890;4.726;2023-07-31T06:26:28;7.17;;;4.93;;
8803;SDS011;4438;50.890;4.726;2023-07-31T06:28:54;7.10;;;4.50;;
8803;SDS011;4438;50.890;4.726;2023-07-31T06:31:20;7.80;;;4.67;;
8803;SDS011;4438;50.890;4.726;2023-07-31T06:33:51;7.27;;;4.50;;
8803;SDS011;4438;50.890;4.726;2023-07-31T06:36:17;7.37;;;4.67;;
8803;SDS011;4438;50.890;4.726;2023-07-31T06:38:44;7.20;;;5.20;;
8803;SDS011;4438;50.890;4.726;2023-07-31T06:41:10;6.37;;;5.00;;
8803;SDS011;4438;50.890;4.726;2023-07-31T06:43:36;6.03;;;4.43;;
8803;SDS011;4438;50.890;4.726;2023-07-31T06:46:06;6.00;;;4.50;;
8803;SDS011;4438;50.890;4.726;2023-07-31T06:48:32;5.83;;;4.93;;
8803;SDS011;4438;50.890;4.726;2023-07-31T06:50:59;6.27;;;4.87;;
8803;SDS011;4438;50.890;4.726;2023-07-31T06:53:25;7.23;;;4.83;;
8803;SDS011;4438;50.890;4.726;2023-07-31T06:55:51;5.87;;;4.33;;
8803;SDS011;4438;50.890;4.726;2023-07-31T06:58:17;4.80;;;4.30;;
8803;SDS011;4438;50.890;4.726;2023-07-31T07:00:43;5.83;;;4.57;;
8803;SDS011;4438;50.890;4.726;2023-07-31T07:03:09;9.07;;;4.70;;
8803;SDS011;4438;50.890;4.726;2023-07-31T07:05:36;5.90;;;4.60;;
8803;SDS011;4438;50.890;4.726;2023-07-31T07:08:02;5.80;;;4.53;;
8803;SDS011;4438;50.890;4.726;2023-07-31T07:10:28;5.73;;;4.60;;
8803;SDS011;4438;50.890;4.726;2023-07-31T07:12:54;6.17;;;4.40;;
8803;SDS011;4438;50.890;4.726;2023-07-31T07:15:20;7.80;;;4.73;;
8803;SDS011;4438;50.890;4.726;2023-07-31T07:17:46;7.07;;;4.47;;
8803;SDS011;4438;50.890;4.726;2023-07-31T07:20:12;6.57;;;4.57;;
8803;SDS011;4438;50.890;4.726;2023-07-31T07:22:38;6.23;;;4.90;;
8803;SDS011;4438;50.890;4.726;2023-07-31T07:25:06;5.80;;;4.40;;
8803;SDS011;4438;50.890;4.726;2023-07-31T07:27:32;6.80;;;4.30;;
8803;SDS011;4438;50.890;4.726;2023-07-31T07:29:58;5.90;;;4.20;;
8803;SDS011;4438;50.890;4.726;2023-07-31T07:32:24;6.93;;;5.00;;
8803;SDS011;4438;50.890;4.726;2023-07-31T07:34:51;5.20;;;3.73;;
8803;SDS011;4438;50.890;4.726;2023-07-31T07:37:17;6.77;;;4.27;;
8803;SDS011;4438;50.890;4.726;2023-07-31T07:39:43;6.50;;;4.30;;
8803;SDS011;4438;50.890;4.726;2023-07-31T07:42:09;6.40;;;4.07;;
8803;SDS011;4438;50.890;4.726;2023-07-31T07:44:35;4.27;;;3.83;;
8803;SDS011;4438;50.890;4.726;2023-07-31T07:47:01;5.07;;;4.57;;
8803;SDS011;4438;50.890;4.726;2023-07-31T07:49:27;4.70;;;4.10;;
8803;SDS011;4438;50.890;4.726;2023-07-31T07:51:54;5.90;;;4.20;;
8803;SDS011;4438;50.890;4.726;2023-07-31T07:54:20;5.93;;;3.97;;
8803;SDS011;4438;50.890;4.726;2023-07-31T07:56:46;5.73;;;3.77;;
8803;SDS011;4438;50.890;4.726;2023-07-31T07:59:12;6.63;;;3.90;;
8803;SDS011;4438;50.890;4.726;2023-07-31T08:01:38;6.17;;;4.03;;
8803;SDS011;4438;50.890;4.726;2023-07-31T08:04:04;5.00;;;3.73;;
8803;SDS011;4438;50.890;4.726;2023-07-31T08:06:30;5.63;;;4.00;;
8803;SDS011;4438;50.890;4.726;2023-07-31T08:08:56;5.97;;;3.73;;
8803;SDS011;4438;50.890;4.726;2023-07-31T08:11:22;5.27;;;3.83;;
8803;SDS011;4438;50.890;4.726;2023-07-31T08:13:49;5.53;;;3.83;;
8803;SDS011;4438;50.890;4.726;2023-07-31T08:16:15;4.67;;;3.83;;
8803;SDS011;4438;50.890;4.726;2023-07-31T08:18:41;6.20;;;4.30;;
8803;SDS011;4438;50.890;4.726;2023-07-31T08:21:10;4.10;;;3.70;;
8803;SDS011;4438;50.890;4.726;2023-07-31T08:23:36;6.50;;;3.77;;
8803;SDS011;4438;50.890;4.726;2023-07-31T08:26:02;6.37;;;4.00;;
8803;SDS011;4438;50.890;4.726;2023-07-31T08:28:28;6.30;;;3.70;;
8803;SDS011;4438;50.890;4.726;2023-07-31T08:30:54;5.97;;;3.50;;
8803;SDS011;4438;50.890;4.726;2023-07-31T08:33:20;6.13;;;3.70;;
8803;SDS011;4438;50.890;4.726;2023-07-31T08:35:46;6.50;;;3.80;;
8803;SDS011;4438;50.890;4.726;2023-07-31T08:38:13;6.50;;;3.73;;
8803;SDS011;4438;50.890;4.726;2023-07-31T08:40:39;4.57;;;3.70;;
8803;SDS011;4438;50.890;4.726;2023-07-31T08:43:05;5.47;;;3.60;;
8803;SDS011;4438;50.890;4.726;2023-07-31T08:45:31;4.37;;;3.20;;
8803;SDS011;4438;50.890;4.726;2023-07-31T08:47:58;5.87;;;3.70;;
8803;SDS011;4438;50.890;4.726;2023-07-31T08:50:24;4.10;;;3.43;;
8803;SDS011;4438;50.890;4.726;2023-07-31T08:52:51;4.23;;;3.07;;
8803;SDS011;4438;50.890;4.726;2023-07-31T08:55:17;4.40;;;3.40;;
8803;SDS011;4438;50.890;4.726;2023-07-31T08:57:48;3.77;;;3.37;;
8803;SDS011;4438;50.890;4.726;2023-07-31T09:00:16;4.13;;;3.30;;
8803;SDS011;4438;50.890;4.726;2023-07-31T09:05:44;3.93;;;3.33;;
8803;SDS011;4438;50.890;4.726;2023-07-31T09:08:12;4.97;;;3.17;;
8803;SDS011;4438;50.890;4.726;2023-07-31T09:10:44;3.77;;;3.13;;
8803;SDS011;4438;50.890;4.726;2023-07-31T09:13:11;4.40;;;3.37;;
8803;SDS011;4438;50.890;4.726;2023-07-31T09:15:37;3.50;;;2.93;;
8803;SDS011;4438;50.890;4.726;2023-07-31T09:18:05;5.87;;;3.27;;
8803;SDS011;4438;50.890;4.726;2023-07-31T09:20:31;4.20;;;3.23;;
8803;SDS011;4438;50.890;4.726;2023-07-31T09:23:08;4.60;;;3.60;;
8803;SDS011;4438;50.890;4.726;2023-07-31T09:25:35;4.40;;;3.27;;
8803;SDS011;4438;50.890;4.726;2023-07-31T09:28:05;4.90;;;3.30;;
8803;SDS011;4438;50.890;4.726;2023-07-31T09:30:43;5.57;;;3.20;;
8803;SDS011;4438;50.890;4.726;2023-07-31T09:33:10;7.23;;;3.67;;
8803;SDS011;4438;50.890;4.726;2023-07-31T09:35:36;4.67;;;3.27;;
8803;SDS011;4438;50.890;4.726;2023-07-31T09:38:12;5.67;;;3.67;;
8803;SDS011;4438;50.890;4.726;2023-07-31T09:43:05;4.57;;;3.70;;
8803;SDS011;4438;50.890;4.726;2023-07-31T09:45:34;5.23;;;3.50;;
8803;SDS011;4438;50.890;4.726;2023-07-31T09:48:01;4.20;;;3.80;;
8803;SDS011;4438;50.890;4.726;2023-07-31T09:50:28;4.20;;;3.80;;
8803;SDS011;4438;50.890;4.726;2023-07-31T09:52:54;4.40;;;3.53;;
8803;SDS011;4438;50.890;4.726;2023-07-31T09:55:20;5.47;;;3.50;;
8803;SDS011;4438;50.890;4.726;2023-07-31T09:57:47;5.03;;;3.70;;
8803;SDS011;4438;50.890;4.726;2023-07-31T10:00:15;5.30;;;4.13;;
8803;SDS011;4438;50.890;4.726;2023-07-31T10:02:41;5.97;;;3.90;;
8803;SDS011;4438;50.890;4.726;2023-07-31T10:05:10;4.23;;;3.80;;
8803;SDS011;4438;50.890;4.726;2023-07-31T10:07:38;6.00;;;3.77;;
8803;SDS011;4438;50.890;4.726;2023-07-31T10:10:05;5.37;;;4.23;;
8803;SDS011;4438;50.890;4.726;2023-07-31T10:12:33;4.23;;;3.83;;
8803;SDS011;4438;50.890;4.726;2023-07-31T10:15:00;6.10;;;4.20;;
8803;SDS011;4438;50.890;4.726;2023-07-31T10:17:26;6.07;;;4.53;;
8803;SDS011;4438;50.890;4.726;2023-07-31T10:19:53;5.17;;;4.23;;
8803;SDS011;4438;50.890;4.726;2023-07-31T10:22:19;5.63;;;4.17;;
8803;SDS011;4438;50.890;4.726;2023-07-31T10:24:46;5.77;;;4.67;;
8803;SDS011;4438;50.890;4.726;2023-07-31T10:27:12;6.63;;;4.63;;
8803;SDS011;4438;50.890;4.726;2023-07-31T10:29:38;4.63;;;4.03;;
8803;SDS011;4438;50.890;4.726;2023-07-31T10:32:05;6.67;;;4.67;;
8803;SDS011;4438;50.890;4.726;2023-07-31T10:34:34;6.67;;;4.30;;
8803;SDS011;4438;50.890;4.726;2023-07-31T10:39:45;7.50;;;5.10;;
8803;SDS011;4438;50.890;4.726;2023-07-31T10:42:20;7.30;;;4.60;;
8803;SDS011;4438;50.890;4.726;2023-07-31T10:44:54;8.40;;;5.13;;
8803;SDS011;4438;50.890;4.726;2023-07-31T10:47:21;8.97;;;4.80;;
8803;SDS011;4438;50.890;4.726;2023-07-31T10:49:47;7.93;;;5.00;;
8803;SDS011;4438;50.890;4.726;2023-07-31T10:52:16;6.40;;;5.00;;
8803;SDS011;4438;50.890;4.726;2023-07-31T10:54:48;8.07;;;5.17;;
8803;SDS011;4438;50.890;4.726;2023-07-31T10:57:21;6.07;;;4.63;;
8803;SDS011;4438;50.890;4.726;2023-07-31T10:59:47;6.23;;;5.20;;
8803;SDS011;4438;50.890;4.726;2023-07-31T11:02:24;8.93;;;5.40;;
8803;SDS011;4438;50.890;4.726;2023-07-31T11:05:06;8.13;;;5.23;;
8803;SDS011;4438;50.890;4.726;2023-07-31T11:07:48;6.37;;;5.10;;
8803;SDS011;4438;50.890;4.726;2023-07-31T11:10:18;8.97;;;5.13;;
8803;SDS011;4438;50.890;4.726;2023-07-31T11:12:45;7.93;;;5.27;;
8803;SDS011;4438;50.890;4.726;2023-07-31T11:15:12;6.37;;;5.23;;
8803;SDS011;4438;50.890;4.726;2023-07-31T11:17:38;7.23;;;4.90;;
8803;SDS011;4438;50.890;4.726;2023-07-31T11:20:05;6.60;;;5.50;;
8803;SDS011;4438;50.890;4.726;2023-07-31T11:22:32;8.97;;;5.30;;
8803;SDS011;4438;50.890;4.726;2023-07-31T11:25:00;6.47;;;5.13;;
8803;SDS011;4438;50.890;4.726;2023-07-31T11:27:29;6.97;;;4.97;;
8803;SDS011;4438;50.890;4.726;2023-07-31T11:30:02;10.90;;;5.33;;
8803;SDS011;4438;50.890;4.726;2023-07-31T11:32:28;6.77;;;5.13;;
8803;SDS011;4438;50.890;4.726;2023-07-31T11:34:54;6.30;;;5.00;;
8803;SDS011;4438;50.890;4.726;2023-07-31T11:37:21;7.43;;;4.73;;
8803;SDS011;4438;50.890;4.726;2023-07-31T11:39:59;5.80;;;4.47;;
8803;SDS011;4438;50.890;4.726;2023-07-31T11:42:26;6.30;;;5.00;;
8803;SDS011;4438;50.890;4.726;2023-07-31T11:44:52;7.47;;;5.07;;
8803;SDS011;4438;50.890;4.726;2023-07-31T11:47:18;5.80;;;4.80;;
8803;SDS011;4438;50.890;4.726;2023-07-31T11:49:44;5.80;;;5.00;;
8803;SDS011;4438;50.890;4.726;2023-07-31T11:52:10;6.13;;;4.70;;
8803;SDS011;4438;50.890;4.726;2023-07-31T11:54:37;9.13;;;5.37;;
8803;SDS011;4438;50.890;4.726;2023-07-31T11:57:03;6.73;;;5.00;;
8803;SDS011;4438;50.890;4.726;2023-07-31T11:59:30;6.67;;;4.93;;
8803;SDS011;4438;50.890;4.726;2023-07-31T12:01:56;7.60;;;5.03;;
8803;SDS011;4438;50.890;4.726;2023-07-31T12:04:23;6.97;;;4.70;;
8803;SDS011;4438;50.890;4.726;2023-07-31T12:06:52;7.20;;;5.07;;
8803;SDS011;4438;50.890;4.726;2023-07-31T12:09:18;7.57;;;5.03;;
8803;SDS011;4438;50.890;4.726;2023-07-31T12:11:45;9.93;;;5.20;;
8803;SDS011;4438;50.890;4.726;2023-07-31T12:14:21;5.93;;;4.77;;
8803;SDS011;4438;50.890;4.726;2023-07-31T12:16:47;8.53;;;4.67;;
8803;SDS011;4438;50.890;4.726;2023-07-31T12:19:13;6.47;;;4.03;;
8803;SDS011;4438;50.890;4.726;2023-07-31T12:21:39;5.93;;;5.00;;
8803;SDS011;4438;50.890;4.726;2023-07-31T12:24:06;5.40;;;4.53;;
8803;SDS011;4438;50.890;4.726;2023-07-31T12:26:35;5.80;;;4.80;;
8803;SDS011;4438;50.890;4.726;2023-07-31T12:29:01;5.90;;;4.50;;
8803;SDS011;4438;50.890;4.726;2023-07-31T12:31:28;5.37;;;4.60;;
8803;SDS011;4438;50.890;4.726;2023-07-31T12:33:54;5.50;;;4.57;;
8803;SDS011;4438;50.890;4.726;2023-07-31T12:36:22;5.50;;;4.67;;
8803;SDS011;4438;50.890;4.726;2023-07-31T12:38:48;7.23;;;4.77;;
8803;SDS011;4438;50.890;4.726;2023-07-31T12:41:15;7.17;;;4.80;;
8803;SDS011;4438;50.890;4.726;2023-07-31T12:43:41;9.30;;;5.30;;
8803;SDS011;4438;50.890;4.726;2023-07-31T12:46:07;5.93;;;4.83;;
8803;SDS011;4438;50.890;4.726;2023-07-31T12:48:34;6.73;;;4.93;;
8803;SDS011;4438;50.890;4.726;2023-07-31T12:51:00;6.93;;;4.80;;
8803;SDS011;4438;50.890;4.726;2023-07-31T12:53:27;7.20;;;4.73;;
8803;SDS011;4438;50.890;4.726;2023-07-31T12:55:54;6.20;;;4.60;;
8803;SDS011;4438;50.890;4.726;2023-07-31T12:58:20;7.80;;;5.30;;
8803;SDS011;4438;50.890;4.726;2023-07-31T13:00:46;7.67;;;5.17;;
8803;SDS011;4438;50.890;4.726;2023-07-31T13:03:12;7.23;;;5.73;;
8803;SDS011;4438;50.890;4.726;2023-07-31T13:05:38;6.20;;;5.03;;
8803;SDS011;4438;50.890;4.726;2023-07-31T13:08:04;6.57;;;5.00;;
8803;SDS011;4438;50.890;4.726;2023-07-31T13:10:30;8.13;;;4.73;;
8803;SDS011;4438;50.890;4.726;2023-07-31T13:12:56;7.60;;;5.10;;
8803;SDS011;4438;50.890;4.726;2023-07-31T13:15:22;7.87;;;5.40;;
8803;SDS011;4438;50.890;4.726;2023-07-31T13:17:48;8.47;;;5.40;;
8803;SDS011;4438;50.890;4.726;2023-07-31T13:20:15;8.83;;;5.10;;
8803;SDS011;4438;50.890;4.726;2023-07-31T13:22:41;6.70;;;5.00;;
8803;SDS011;4438;50.890;4.726;2023-07-31T13:25:07;7.03;;;5.00;;
8803;SDS011;4438;50.890;4.726;2023-07-31T13:27:35;7.60;;;4.90;;
8803;SDS011;4438;50.890;4.726;2023-07-31T13:30:01;6.73;;;4.97;;
8803;SDS011;4438;50.890;4.726;2023-07-31T13:32:29;7.30;;;4.70;;
8803;SDS011;4438;50.890;4.726;2023-07-31T13:34:55;7.57;;;4.57;;
8803;SDS011;4438;50.890;4.726;2023-07-31T13:37:21;8.43;;;4.93;;
8803;SDS011;4438;50.890;4.726;2023-07-31T13:39:47;6.47;;;4.30;;
8803;SDS011;4438;50.890;4.726;2023-07-31T13:42:13;5.47;;;4.50;;
8803;SDS011;4438;50.890;4.726;2023-07-31T13:44:40;7.67;;;4.60;;
8803;SDS011;4438;50.890;4.726;2023-07-31T13:47:06;6.70;;;4.60;;
8803;SDS011;4438;50.890;4.726;2023-07-31T13:49:32;7.20;;;4.73;;
8803;SDS011;4438;50.890;4.726;2023-07-31T13:51:59;6.43;;;4.33;;
8803;SDS011;4438;50.890;4.726;2023-07-31T13:54:25;5.93;;;4.47;;
8803;SDS011;4438;50.890;4.726;2023-07-31T13:56:52;7.23;;;4.20;;
8803;SDS011;4438;50.890;4.726;2023-07-31T13:59:18;7.70;;;4.13;;
8803;SDS011;4438;50.890;4.726;2023-07-31T14:01:44;7.03;;;4.63;;
8803;SDS011;4438;50.890;4.726;2023-07-31T14:04:10;4.97;;;4.10;;
8803;SDS011;4438;50.890;4.726;2023-07-31T14:06:37;5.53;;;4.23;;
8803;SDS011;4438;50.890;4.726;2023-07-31T14:09:03;5.17;;;4.10;;
8803;SDS011;4438;50.890;4.726;2023-07-31T14:11:30;6.43;;;3.93;;
8803;SDS011;4438;50.890;4.726;2023-07-31T14:13:56;6.13;;;3.90;;
8803;SDS011;4438;50.890;4.726;2023-07-31T14:16:23;5.73;;;4.17;;
8803;SDS011;4438;50.890;4.726;2023-07-31T14:18:49;5.70;;;4.20;;
8803;SDS011;4438;50.890;4.726;2023-07-31T14:21:15;5.50;;;4.43;;
8803;SDS011;4438;50.890;4.726;2023-07-31T14:23:44;5.33;;;3.97;;
8803;SDS011;4438;50.890;4.726;2023-07-31T14:26:10;5.40;;;3.73;;
8803;SDS011;4438;50.890;4.726;2023-07-31T14:28:36;4.90;;;3.70;;
8803;SDS011;4438;50.890;4.726;2023-07-31T14:31:02;4.77;;;3.70;;
8803;SDS011;4438;50.890;4.726;2023-07-31T14:33:28;4.83;;;3.77;;
8803;SDS011;4438;50.890;4.726;2023-07-31T14:35:54;5.53;;;3.70;;
8803;SDS011;4438;50.890;4.726;2023-07-31T14:38:20;4.20;;;3.57;;
8803;SDS011;4438;50.890;4.726;2023-07-31T14:40:46;5.23;;;3.80;;
8803;SDS011;4438;50.890;4.726;2023-07-31T14:43:13;4.63;;;3.90;;
8803;SDS011;4438;50.890;4.726;2023-07-31T14:45:39;4.83;;;4.00;;
8803;SDS011;4438;50.890;4.726;2023-07-31T14:48:05;5.00;;;4.00;;
8803;SDS011;4438;50.890;4.726;2023-07-31T14:50:31;4.60;;;3.80;;
8803;SDS011;4438;50.890;4.726;2023-07-31T14:52:57;4.50;;;4.10;;
8803;SDS011;4438;50.890;4.726;2023-07-31T14:55:23;4.27;;;3.53;;
8803;SDS011;4438;50.890;4.726;2023-07-31T14:57:49;5.73;;;3.87;;
8803;SDS011;4438;50.890;4.726;2023-07-31T15:00:15;4.57;;;3.83;;
8803;SDS011;4438;50.890;4.726;2023-07-31T15:02:41;5.63;;;3.97;;
8803;SDS011;4438;50.890;4.726;2023-07-31T15:05:07;4.67;;;3.57;;
8803;SDS011;4438;50.890;4.726;2023-07-31T15:07:34;4.20;;;3.60;;
8803;SDS011;4438;50.890;4.726;2023-07-31T15:10:03;3.97;;;3.33;;
8803;SDS011;4438;50.890;4.726;2023-07-31T15:12:30;4.20;;;3.50;;
8803;SDS011;4438;50.890;4.726;2023-07-31T15:14:57;3.50;;;3.20;;
8803;SDS011;4438;50.890;4.726;2023-07-31T15:17:23;3.53;;;3.00;;
8803;SDS011;4438;50.890;4.726;2023-07-31T15:19:49;3.43;;;3.10;;
8803;SDS011;4438;50.890;4.726;2023-07-31T15:22:15;3.40;;;3.10;;
8803;SDS011;4438;50.890;4.726;2023-07-31T15:24:41;3.00;;;2.70;;
8803;SDS011;4438;50.890;4.726;2023-07-31T15:27:07;4.03;;;2.87;;